Las Vegas, Nevada
Traffic Map
Current Weather Conditions
Las Vegas, Nevada
Scattered Clouds
Scattered Clouds
14°
Feels Like: 14°
Wind Chill: 14° Ceiling: Unl
Heat Index: 14° Visibility: 10mi
Dew Point: -6° Wind: 5mph
Humidity: 24% Direction: 210° (SSW)
Pressure: 30.06in Gusts: 0mph
Raw Report DataKLAS 301356Z 21004KT 10SM SCT250 14/M06 A3006 RMK AO2 SLP164 T01441061
Traffic Incident Summary
Active as of:
Severity:
Category:
InformationThere was an issue retrieving the traffic information for this location. Please try a different location or try again shortly.
Advertisements
Track Severe Weather on mobile